createdAt,value
2018-10-09T00:01:35.864Z,19.00
2018-10-09T00:04:03.317Z,19.00
2018-10-09T00:06:30.747Z,19.00
2018-10-09T00:08:58.222Z,19.00
2018-10-09T00:11:25.631Z,19.00
2018-10-09T00:13:53.074Z,19.10
2018-10-09T00:16:20.731Z,19.00
2018-10-09T00:18:48.132Z,19.10
2018-10-09T00:21:15.530Z,19.10
2018-10-09T00:23:43.008Z,19.10
2018-10-09T00:26:10.512Z,19.10
2018-10-09T00:28:37.912Z,19.10
2018-10-09T00:31:05.420Z,19.10
2018-10-09T00:33:32.841Z,19.20
2018-10-09T00:36:00.305Z,19.20
2018-10-09T00:38:27.702Z,19.20
2018-10-09T00:40:55.174Z,19.20
2018-10-09T00:43:22.649Z,19.20
2018-10-09T00:45:50.083Z,19.20
2018-10-09T00:48:17.545Z,19.20
2018-10-09T00:50:45.493Z,19.20
2018-10-09T00:53:12.914Z,19.30
2018-10-09T00:55:40.366Z,19.30
2018-10-09T00:58:07.792Z,19.30
2018-10-09T01:00:35.216Z,19.30
2018-10-09T01:03:02.623Z,19.30
2018-10-09T01:05:30.042Z,19.30
2018-10-09T01:07:57.477Z,19.30
2018-10-09T01:10:24.918Z,19.30
2018-10-09T01:12:52.318Z,19.30
2018-10-09T01:15:19.784Z,19.30
2018-10-09T01:17:47.175Z,19.30
2018-10-09T01:20:19.202Z,19.30
2018-10-09T01:22:46.666Z,19.30
2018-10-09T01:25:14.123Z,19.30
2018-10-09T01:27:41.552Z,19.30
2018-10-09T01:30:08.996Z,19.20
2018-10-09T01:32:36.437Z,19.20
2018-10-09T01:35:03.890Z,19.20
2018-10-09T01:37:31.324Z,19.20
2018-10-09T01:39:58.828Z,19.20
2018-10-09T01:42:26.234Z,19.20
2018-10-09T01:44:53.654Z,19.20
2018-10-09T01:47:21.078Z,19.20
2018-10-09T01:49:48.458Z,19.30
2018-10-09T01:52:15.930Z,19.20
2018-10-09T01:54:43.387Z,19.20
2018-10-09T01:57:10.788Z,19.20
2018-10-09T01:59:38.204Z,19.20
2018-10-09T02:02:05.708Z,19.20
2018-10-09T02:04:33.128Z,19.20
2018-10-09T02:07:00.566Z,19.20
2018-10-09T02:09:27.962Z,19.20
2018-10-09T02:11:55.354Z,19.20
2018-10-09T02:14:22.766Z,19.20
2018-10-09T02:16:50.156Z,19.20
2018-10-09T02:19:17.562Z,19.20
2018-10-09T02:21:44.981Z,19.20
2018-10-09T02:24:12.432Z,19.20
2018-10-09T02:26:39.805Z,19.20
2018-10-09T02:29:07.246Z,19.20
2018-10-09T02:31:34.634Z,19.20
2018-10-09T02:34:02.058Z,19.20
2018-10-09T02:36:29.448Z,19.30
2018-10-09T02:38:56.876Z,19.30
2018-10-09T02:41:24.304Z,19.30
2018-10-09T02:43:51.738Z,19.30
2018-10-09T02:46:19.138Z,19.30
2018-10-09T02:48:46.602Z,19.30
2018-10-09T02:51:14.001Z,19.30
2018-10-09T02:53:41.429Z,19.20
2018-10-09T02:56:08.827Z,19.20
2018-10-09T02:58:36.246Z,19.20
2018-10-09T03:01:03.639Z,19.20
2018-10-09T03:03:31.065Z,19.20
2018-10-09T03:05:58.479Z,19.20
2018-10-09T03:08:25.983Z,19.20
2018-10-09T03:10:53.409Z,19.10
2018-10-09T03:13:20.853Z,19.20
2018-10-09T03:15:48.281Z,19.10
2018-10-09T03:18:15.683Z,19.10
2018-10-09T03:20:43.144Z,19.10
2018-10-09T03:23:10.543Z,19.10
2018-10-09T03:25:37.959Z,19.10
2018-10-09T03:28:05.475Z,19.00
2018-10-09T03:30:32.885Z,19.00
2018-10-09T03:33:00.279Z,19.00
2018-10-09T03:35:27.733Z,19.00
2018-10-09T03:37:55.147Z,19.00
2018-10-09T03:40:22.557Z,18.90
2018-10-09T03:42:49.945Z,18.90
2018-10-09T03:45:17.357Z,18.90
2018-10-09T03:47:44.780Z,18.90
2018-10-09T03:50:12.217Z,18.90
2018-10-09T03:52:39.626Z,18.90
2018-10-09T03:55:07.110Z,18.90
2018-10-09T03:57:34.563Z,18.90
2018-10-09T04:00:02.017Z,18.90
2018-10-09T04:02:30.078Z,18.90
2018-10-09T04:04:57.520Z,18.90
2018-10-09T04:07:24.924Z,18.90
2018-10-09T04:09:52.362Z,18.90
2018-10-09T04:12:19.791Z,18.90
2018-10-09T04:14:47.219Z,18.90
2018-10-09T04:17:14.641Z,18.90
2018-10-09T04:19:42.052Z,18.90
2018-10-09T04:22:14.030Z,19.00
2018-10-09T04:24:41.414Z,19.00
2018-10-09T04:27:08.824Z,19.00
2018-10-09T04:29:36.230Z,19.00
2018-10-09T04:32:03.890Z,19.00
2018-10-09T04:34:31.301Z,19.10
2018-10-09T04:36:58.740Z,19.10
2018-10-09T04:39:26.166Z,19.10
2018-10-09T04:41:53.630Z,19.10
2018-10-09T04:44:21.006Z,19.10
2018-10-09T04:46:48.502Z,19.10
2018-10-09T04:49:15.910Z,19.00
2018-10-09T04:51:43.338Z,19.10
2018-10-09T04:54:10.784Z,19.20
2018-10-09T04:56:38.211Z,19.10
2018-10-09T04:59:05.644Z,19.20
2018-10-09T05:01:33.033Z,19.20
2018-10-09T05:04:00.497Z,19.20
2018-10-09T05:06:27.929Z,19.20
2018-10-09T05:08:55.431Z,19.20
2018-10-09T05:11:22.822Z,19.20
2018-10-09T05:13:50.218Z,19.20
2018-10-09T05:16:17.646Z,19.20
2018-10-09T05:18:45.169Z,19.20
2018-10-09T05:21:12.577Z,19.20
2018-10-09T05:23:39.985Z,19.20
2018-10-09T05:26:07.455Z,19.20
2018-10-09T05:28:34.851Z,19.20
2018-10-09T05:31:02.246Z,19.30
2018-10-09T05:33:29.655Z,19.20
2018-10-09T05:35:57.100Z,19.30
2018-10-09T05:38:24.541Z,19.20
2018-10-09T05:40:51.919Z,19.20
2018-10-09T05:43:19.377Z,19.20
2018-10-09T05:45:46.805Z,19.20
2018-10-09T05:48:14.247Z,19.20
2018-10-09T05:50:41.769Z,19.20
2018-10-09T05:53:09.239Z,19.20
2018-10-09T05:55:37.097Z,19.10
2018-10-09T05:58:04.646Z,19.10
2018-10-09T06:00:32.111Z,19.10
2018-10-09T06:02:59.915Z,19.10
2018-10-09T06:05:27.456Z,19.10
2018-10-09T06:07:54.915Z,19.10
2018-10-09T06:10:22.359Z,19.10
2018-10-09T06:12:49.816Z,19.10
2018-10-09T06:15:17.338Z,19.10
2018-10-09T06:17:44.769Z,19.10
2018-10-09T06:20:12.267Z,19.20
2018-10-09T06:22:39.699Z,19.20
2018-10-09T06:25:07.258Z,19.20
2018-10-09T06:27:34.771Z,19.20
2018-10-09T06:30:02.258Z,19.20
2018-10-09T06:32:29.679Z,19.20
2018-10-09T06:34:57.199Z,20.80
2018-10-09T06:37:24.749Z,19.30
2018-10-09T06:39:52.171Z,19.30
2018-10-09T06:42:19.659Z,19.30
2018-10-09T06:44:47.097Z,19.40
2018-10-09T06:47:14.531Z,19.50
2018-10-09T06:49:41.998Z,19.40
2018-10-09T06:52:09.452Z,19.50
2018-10-09T06:54:36.943Z,19.50
2018-10-09T06:57:04.320Z,19.50
2018-10-09T06:59:31.751Z,19.50
2018-10-09T07:01:59.267Z,19.50
2018-10-09T07:04:26.679Z,19.40
2018-10-09T07:06:54.134Z,19.60
2018-10-09T07:09:21.620Z,19.70
2018-10-09T07:11:49.070Z,19.70
2018-10-09T07:14:16.608Z,19.70
2018-10-09T07:16:44.075Z,19.70
2018-10-09T07:19:11.599Z,18.00
2018-10-09T07:21:39.041Z,17.50
2018-10-09T07:24:09.379Z,19.90
2018-10-09T07:26:43.970Z,20.00
2018-10-09T07:29:11.425Z,20.00
2018-10-09T07:31:38.861Z,20.00
2018-10-09T07:34:06.661Z,20.10
2018-10-09T07:36:34.128Z,20.10
2018-10-09T07:39:01.659Z,20.20
2018-10-09T07:41:29.301Z,20.20
2018-10-09T07:43:57.038Z,23.70
2018-10-09T07:46:24.447Z,20.30
2018-10-09T07:48:52.055Z,20.40
2018-10-09T07:51:19.511Z,19.80
2018-10-09T07:53:46.969Z,20.50
2018-10-09T07:56:14.411Z,18.20
2018-10-09T07:58:42.115Z,20.50
2018-10-09T08:01:09.587Z,20.60
2018-10-09T08:03:37.043Z,20.50
2018-10-09T08:06:04.568Z,20.70
2018-10-09T08:08:32.081Z,20.70
2018-10-09T08:10:59.600Z,20.70
2018-10-09T08:13:27.082Z,20.70
2018-10-09T08:15:54.554Z,20.80
2018-10-09T08:18:22.083Z,20.80
2018-10-09T08:20:49.517Z,20.90
2018-10-09T08:23:16.963Z,20.90
2018-10-09T08:25:44.456Z,20.90
2018-10-09T08:28:11.923Z,21.00
2018-10-09T08:30:39.371Z,21.00
2018-10-09T08:33:06.878Z,21.10
2018-10-09T08:35:34.419Z,21.20
2018-10-09T08:38:01.836Z,21.20
2018-10-09T08:40:29.340Z,21.30
2018-10-09T08:42:56.680Z,21.40
2018-10-09T08:45:24.153Z,21.40
2018-10-09T08:47:51.624Z,21.50
2018-10-09T08:50:19.070Z,21.60
2018-10-09T08:52:46.496Z,21.60
2018-10-09T08:55:13.994Z,21.60
2018-10-09T08:57:41.658Z,21.70
2018-10-09T09:00:09.810Z,21.80
2018-10-09T09:02:37.255Z,21.80
2018-10-09T09:05:05.478Z,21.90
2018-10-09T09:07:32.914Z,21.90
2018-10-09T09:10:00.398Z,22.00
2018-10-09T09:12:27.824Z,22.10
2018-10-09T09:14:55.286Z,22.10
2018-10-09T09:17:22.767Z,22.10
2018-10-09T09:19:50.182Z,22.20
2018-10-09T09:22:17.664Z,22.20
2018-10-09T09:24:45.084Z,22.20
2018-10-09T09:27:13.708Z,22.20
2018-10-09T09:29:41.604Z,22.20
2018-10-09T09:32:09.039Z,22.20
2018-10-09T09:34:36.476Z,22.20
2018-10-09T09:37:03.979Z,22.10
2018-10-09T09:39:31.390Z,22.20
2018-10-09T09:41:58.832Z,20.40
2018-10-09T09:44:26.280Z,22.20
2018-10-09T09:46:53.760Z,22.20
2018-10-09T09:49:21.206Z,22.20
2018-10-09T09:51:48.763Z,22.10
2018-10-09T09:54:16.249Z,22.10
2018-10-09T09:56:43.794Z,22.10
2018-10-09T09:59:11.502Z,22.10
2018-10-09T10:01:41.925Z,22.00
2018-10-09T10:04:09.781Z,22.00
2018-10-09T10:06:37.257Z,22.00
2018-10-09T10:09:05.908Z,22.00
2018-10-09T10:11:33.407Z,22.00
2018-10-09T10:14:00.998Z,22.00
2018-10-09T10:16:28.439Z,22.00
2018-10-09T10:18:55.965Z,22.10
2018-10-09T10:21:23.478Z,22.10
2018-10-09T10:23:51.390Z,22.10
2018-10-09T10:26:18.930Z,22.10
2018-10-09T10:28:46.443Z,22.90
2018-10-09T10:31:13.951Z,22.10
2018-10-09T10:33:41.450Z,22.10
2018-10-09T10:36:08.934Z,22.10
2018-10-09T10:38:36.391Z,22.20
2018-10-09T10:41:04.037Z,22.20
2018-10-09T10:43:31.477Z,22.20
2018-10-09T10:45:58.903Z,22.30
2018-10-09T10:48:26.399Z,22.20
2018-10-09T10:50:53.883Z,22.30
2018-10-09T10:53:21.327Z,22.30
2018-10-09T10:55:48.795Z,22.30
2018-10-09T10:58:16.289Z,22.30
2018-10-09T11:00:43.747Z,22.30
2018-10-09T11:03:11.168Z,22.30
2018-10-09T11:05:38.591Z,22.40
2018-10-09T11:08:06.121Z,22.40
2018-10-09T11:10:33.531Z,22.40
2018-10-09T11:13:00.965Z,22.40
2018-10-09T11:15:28.467Z,22.40
2018-10-09T11:17:55.908Z,22.40
2018-10-09T11:20:23.336Z,22.40
2018-10-09T11:22:50.830Z,22.40
2018-10-09T11:25:18.307Z,22.40
2018-10-09T11:27:45.859Z,22.40
2018-10-09T11:30:13.339Z,22.40
2018-10-09T11:32:40.795Z,22.40
2018-10-09T11:35:08.282Z,22.40
2018-10-09T11:37:35.853Z,22.30
2018-10-09T11:40:03.405Z,22.40
2018-10-09T11:42:30.987Z,22.40
2018-10-09T11:44:58.437Z,22.40
2018-10-09T11:47:25.884Z,22.40
2018-10-09T11:49:53.330Z,22.40
2018-10-09T11:52:20.774Z,22.50
2018-10-09T11:54:48.260Z,22.70
2018-10-09T11:57:15.716Z,22.90
2018-10-09T11:59:43.164Z,23.10
2018-10-09T12:02:10.682Z,23.30
2018-10-09T12:04:38.092Z,23.50
2018-10-09T12:07:05.546Z,23.70
2018-10-09T12:09:32.974Z,23.90
2018-10-09T12:12:00.405Z,24.10
2018-10-09T12:14:27.870Z,24.20
2018-10-09T12:16:55.319Z,24.40
2018-10-09T12:19:22.732Z,24.50
2018-10-09T12:21:50.355Z,24.70
2018-10-09T12:24:17.645Z,24.80
2018-10-09T12:26:45.108Z,25.10
2018-10-09T12:29:12.573Z,25.30
2018-10-09T12:31:40.022Z,25.70
2018-10-09T12:34:07.509Z,26.10
2018-10-09T12:36:34.974Z,26.60
2018-10-09T12:39:03.963Z,27.30
2018-10-09T12:41:31.405Z,27.90
2018-10-09T12:43:58.878Z,28.60
2018-10-09T12:46:26.316Z,29.30
2018-10-09T12:48:53.763Z,30.00
2018-10-09T12:51:21.241Z,30.60
2018-10-09T12:53:48.680Z,31.90
2018-10-09T12:56:16.106Z,31.90
2018-10-09T12:58:43.650Z,32.50
2018-10-09T13:01:11.019Z,32.90
2018-10-09T13:03:38.539Z,33.40
2018-10-09T13:06:05.997Z,33.70
2018-10-09T13:08:33.465Z,34.00
2018-10-09T13:11:00.950Z,34.30
2018-10-09T13:13:28.417Z,34.60
2018-10-09T13:15:55.883Z,34.90
2018-10-09T13:18:23.342Z,35.10
2018-10-09T13:20:51.121Z,35.40
2018-10-09T13:23:18.573Z,35.60
2018-10-09T13:25:46.017Z,35.90
2018-10-09T13:28:13.451Z,36.20
2018-10-09T13:30:40.956Z,36.40
2018-10-09T13:33:08.510Z,36.50
2018-10-09T13:35:36.040Z,36.30
2018-10-09T13:38:03.548Z,36.30
2018-10-09T13:40:31.025Z,36.10
2018-10-09T13:42:58.556Z,35.70
2018-10-09T13:45:26.061Z,35.30
2018-10-09T13:47:53.487Z,34.80
2018-10-09T13:50:20.982Z,34.40
2018-10-09T13:52:48.386Z,33.90
2018-10-09T13:55:15.890Z,33.30
2018-10-09T13:57:43.380Z,32.90
2018-10-09T14:00:10.946Z,32.50
2018-10-09T14:02:38.382Z,32.20
2018-10-09T14:05:05.932Z,32.00
2018-10-09T14:07:33.374Z,31.90
2018-10-09T14:10:00.848Z,31.80
2018-10-09T14:12:28.253Z,31.80
2018-10-09T14:14:55.753Z,31.80
2018-10-09T14:17:23.268Z,31.60
2018-10-09T14:19:50.967Z,31.40
2018-10-09T14:22:18.397Z,31.10
2018-10-09T14:24:45.847Z,30.80
2018-10-09T14:27:13.324Z,30.40
2018-10-09T14:29:47.714Z,30.00
2018-10-09T14:32:15.151Z,29.60
2018-10-09T14:34:42.599Z,29.30
2018-10-09T14:37:10.104Z,28.80
2018-10-09T14:39:37.525Z,28.40
2018-10-09T14:42:05.014Z,28.10
2018-10-09T14:44:32.445Z,27.70
2018-10-09T14:46:59.952Z,27.40
2018-10-09T14:49:27.398Z,27.00
2018-10-09T14:51:54.878Z,26.70
2018-10-09T14:54:22.420Z,26.40
2018-10-09T14:56:49.897Z,26.30
2018-10-09T14:59:17.338Z,26.00
2018-10-09T15:01:44.810Z,25.80
2018-10-09T15:04:12.230Z,25.60
2018-10-09T15:06:39.713Z,25.50
2018-10-09T15:09:11.844Z,25.30
2018-10-09T15:11:39.314Z,25.10
2018-10-09T15:14:06.787Z,25.00
2018-10-09T15:16:34.225Z,24.80
2018-10-09T15:19:01.662Z,24.70
2018-10-09T15:21:29.097Z,24.50
2018-10-09T15:23:56.585Z,24.40
2018-10-09T15:26:24.206Z,24.30
2018-10-09T15:28:51.729Z,24.20
2018-10-09T15:31:19.119Z,23.90
2018-10-09T15:33:46.595Z,23.90
2018-10-09T15:36:14.103Z,23.80
2018-10-09T15:38:41.537Z,23.70
2018-10-09T15:41:08.985Z,23.70
2018-10-09T15:43:36.443Z,23.60
2018-10-09T15:46:03.925Z,23.50
2018-10-09T15:48:31.362Z,23.40
2018-10-09T15:50:58.785Z,23.30
2018-10-09T15:53:28.894Z,23.20
2018-10-09T15:55:56.365Z,22.80
2018-10-09T15:58:23.906Z,25.40
2018-10-09T16:00:51.362Z,23.00
2018-10-09T16:03:18.881Z,22.90
2018-10-09T16:05:46.338Z,22.80
2018-10-09T16:08:13.870Z,22.70
2018-10-09T16:10:41.290Z,22.60
2018-10-09T16:13:08.730Z,22.60
2018-10-09T16:15:36.205Z,22.50
2018-10-09T16:18:03.703Z,22.40
2018-10-09T16:20:31.265Z,21.80
2018-10-09T16:22:58.749Z,22.30
2018-10-09T16:25:26.197Z,22.20
2018-10-09T16:27:53.660Z,22.10
2018-10-09T16:30:21.171Z,22.00
2018-10-09T16:32:48.735Z,22.00
2018-10-09T16:35:16.073Z,21.90
2018-10-09T16:37:43.719Z,21.80
2018-10-09T16:40:11.458Z,21.80
2018-10-09T16:42:38.970Z,21.70
2018-10-09T16:45:06.650Z,21.60
2018-10-09T16:47:34.164Z,21.60
2018-10-09T16:50:01.669Z,20.80
2018-10-09T16:52:29.123Z,21.40
2018-10-09T16:54:56.605Z,21.40
2018-10-09T16:57:24.117Z,21.30
2018-10-09T16:59:51.598Z,21.30
2018-10-09T17:02:19.142Z,21.20
2018-10-09T17:04:49.988Z,21.10
2018-10-09T17:07:17.893Z,21.10
2018-10-09T17:09:45.337Z,21.10
2018-10-09T17:12:12.890Z,21.00
2018-10-09T17:14:40.336Z,20.90
2018-10-09T17:17:07.881Z,19.00
2018-10-09T17:19:35.350Z,20.80
2018-10-09T17:22:02.856Z,20.80
2018-10-09T17:24:30.363Z,20.80
2018-10-09T17:26:58.416Z,20.70
2018-10-09T17:29:25.871Z,20.70
2018-10-09T17:31:53.355Z,20.60
2018-10-09T17:34:20.882Z,20.60
2018-10-09T17:36:48.451Z,20.60
2018-10-09T17:39:15.927Z,20.50
2018-10-09T17:41:43.402Z,20.50
2018-10-09T17:44:10.836Z,20.50
2018-10-09T17:46:38.793Z,20.50
2018-10-09T17:49:06.263Z,20.40
2018-10-09T17:51:33.717Z,20.40
2018-10-09T17:54:01.199Z,20.40
2018-10-09T17:56:28.668Z,20.50
2018-10-09T17:58:56.148Z,20.50
2018-10-09T18:01:23.623Z,20.40
2018-10-09T18:03:51.098Z,20.50
2018-10-09T18:06:18.538Z,20.50
2018-10-09T18:08:46.170Z,20.50
2018-10-09T18:11:13.635Z,20.50
2018-10-09T18:13:41.164Z,20.60
2018-10-09T18:16:08.810Z,20.60
2018-10-09T18:18:36.383Z,20.60
2018-10-09T18:21:03.884Z,20.60
2018-10-09T18:23:31.424Z,20.60
2018-10-09T18:25:59.590Z,20.60
2018-10-09T18:28:27.024Z,20.60
2018-10-09T18:30:54.622Z,20.60
2018-10-09T18:33:22.251Z,20.60
2018-10-09T18:35:49.616Z,20.60
2018-10-09T18:38:17.153Z,20.60
2018-10-09T18:40:44.727Z,20.70
2018-10-09T18:43:12.197Z,20.60
2018-10-09T18:45:39.682Z,20.70
2018-10-09T18:48:07.207Z,20.60
2018-10-09T18:50:35.387Z,20.60
2018-10-09T18:53:02.860Z,20.60
2018-10-09T18:55:30.311Z,20.60
2018-10-09T18:57:57.752Z,20.60
2018-10-09T19:00:25.322Z,20.50
2018-10-09T19:02:52.870Z,20.50
2018-10-09T19:05:20.853Z,20.50
2018-10-09T19:07:48.735Z,20.40
2018-10-09T19:10:16.267Z,20.30
2018-10-09T19:12:43.781Z,20.40
2018-10-09T19:15:11.334Z,20.30
2018-10-09T19:17:38.869Z,17.60
2018-10-09T19:20:06.488Z,20.20
2018-10-09T19:22:34.017Z,20.20
2018-10-09T19:25:01.481Z,20.10
2018-10-09T19:27:28.992Z,20.10
2018-10-09T19:29:56.594Z,20.00
2018-10-09T19:32:24.177Z,20.00
2018-10-09T19:34:51.721Z,19.90
2018-10-09T19:37:19.324Z,19.90
2018-10-09T19:39:47.092Z,19.80
2018-10-09T19:42:14.589Z,19.80
2018-10-09T19:44:42.241Z,19.80
2018-10-09T19:47:09.839Z,19.80
2018-10-09T19:49:37.382Z,19.70
2018-10-09T19:52:05.089Z,19.70
2018-10-09T19:54:32.561Z,19.60
2018-10-09T19:57:00.021Z,19.60
2018-10-09T19:59:28.341Z,19.60
2018-10-09T20:01:56.239Z,19.50
2018-10-09T20:06:50.565Z,19.50
2018-10-09T20:09:18.068Z,19.50
2018-10-09T20:11:45.535Z,19.50
2018-10-09T20:14:13.911Z,19.50
2018-10-09T20:16:41.661Z,19.50
2018-10-09T20:19:10.194Z,19.50
2018-10-09T20:21:37.661Z,19.50
2018-10-09T20:24:05.506Z,19.60
2018-10-09T20:26:33.494Z,19.60
2018-10-09T20:29:01.016Z,19.50
2018-10-09T20:31:28.572Z,19.60
2018-10-09T20:33:56.052Z,19.60
2018-10-09T20:36:23.498Z,19.70
2018-10-09T20:38:50.977Z,19.70
2018-10-09T20:41:18.480Z,19.70
2018-10-09T20:43:45.947Z,19.70
2018-10-09T20:46:13.415Z,19.60
2018-10-09T20:48:40.954Z,19.70
2018-10-09T20:51:08.416Z,19.70
2018-10-09T20:53:35.838Z,19.70
2018-10-09T20:56:03.298Z,19.70
2018-10-09T20:58:30.768Z,19.70
2018-10-09T21:00:58.194Z,19.70
2018-10-09T21:03:26.065Z,19.70
2018-10-09T21:05:53.677Z,19.70
2018-10-09T21:08:21.016Z,19.60
2018-10-09T21:10:48.502Z,19.60
2018-10-09T21:13:16.204Z,19.60
2018-10-09T21:15:43.998Z,19.50
2018-10-09T21:18:11.505Z,19.50
2018-10-09T21:20:39.005Z,19.40
2018-10-09T21:23:06.557Z,19.40
2018-10-09T21:25:34.016Z,19.30
2018-10-09T21:28:01.460Z,19.30
2018-10-09T21:30:29.994Z,19.30
2018-10-09T21:32:57.655Z,19.20
2018-10-09T21:35:25.226Z,19.20
2018-10-09T21:37:53.702Z,19.10
2018-10-09T21:40:21.152Z,19.10
2018-10-09T21:42:48.594Z,19.10
2018-10-09T21:45:16.033Z,19.00
2018-10-09T21:47:49.177Z,19.00
2018-10-09T21:50:16.652Z,18.90
2018-10-09T21:52:44.101Z,18.80
2018-10-09T21:55:11.595Z,18.90
2018-10-09T21:57:39.093Z,18.80
2018-10-09T22:00:08.423Z,18.80
2018-10-09T22:02:35.921Z,18.70
2018-10-09T22:05:03.519Z,18.70
2018-10-09T22:07:30.945Z,18.70
2018-10-09T22:09:58.360Z,18.70
2018-10-09T22:12:25.789Z,18.70
2018-10-09T22:14:53.215Z,18.60
2018-10-09T22:17:20.798Z,18.60
2018-10-09T22:19:48.238Z,18.60
2018-10-09T22:22:15.678Z,18.60
2018-10-09T22:24:43.175Z,18.60
2018-10-09T22:27:10.673Z,18.60
2018-10-09T22:29:38.101Z,18.50
2018-10-09T22:32:05.643Z,18.60
2018-10-09T22:34:33.057Z,18.50
2018-10-09T22:37:00.488Z,18.60
2018-10-09T22:39:27.944Z,18.50
2018-10-09T22:41:55.374Z,18.50
2018-10-09T22:44:22.859Z,18.50
2018-10-09T22:46:50.450Z,18.50
2018-10-09T22:49:17.897Z,18.50
2018-10-09T22:51:45.362Z,18.50
2018-10-09T22:54:12.895Z,18.50
2018-10-09T22:56:40.351Z,18.50
2018-10-09T22:59:07.837Z,18.40
2018-10-09T23:01:35.292Z,18.40
2018-10-09T23:04:02.719Z,18.40
2018-10-09T23:06:30.136Z,18.40
2018-10-09T23:08:57.586Z,18.40
2018-10-09T23:11:25.046Z,18.40
2018-10-09T23:13:52.462Z,18.40
2018-10-09T23:16:19.880Z,18.40
2018-10-09T23:18:47.384Z,18.30
2018-10-09T23:21:14.797Z,18.30
2018-10-09T23:23:42.215Z,18.40
2018-10-09T23:26:09.699Z,18.40
2018-10-09T23:28:37.175Z,18.40
2018-10-09T23:31:04.692Z,18.40
2018-10-09T23:33:32.111Z,18.40
2018-10-09T23:35:59.553Z,18.40
2018-10-09T23:38:26.984Z,18.40
2018-10-09T23:40:54.419Z,18.40
2018-10-09T23:43:21.879Z,18.40
2018-10-09T23:45:49.284Z,18.40
2018-10-09T23:48:16.722Z,18.50
2018-10-09T23:50:44.148Z,18.50
2018-10-09T23:53:11.590Z,18.50
2018-10-09T23:55:39.143Z,18.50
2018-10-09T23:58:06.913Z,18.50
